Impacts TAF Board
For situational awareness. Not to be used for flight planning purposes.
IDs:

KPDX - Portland Intl Arpt, OR, US

Issued at 0520 UTC 22 Oct 2021
Updated at 0631 UTC 22 Oct 2021
Potential Impact None Slight Moderate High
Time<<22/19Z 22/20Z 22/21Z 22/22Z 22/23Z 23/00Z 23/01Z 23/02Z 23/03Z 23/04Z 23/05Z 23/06Z 23/07Z>>
Type PRVL PRVL PRVL PRVL PRVL PRVL PRVL PRVL PRVL PRVL PRVL
VIS >6 >6 >6 >6 >6 >6 >6 >6 >6 >6 >6
CIG 45 45 40 40 40 40 40 40 40 40 40
Cover BKN BKN BKN BKN BKN BKN BKN BKN BKN BKN BKN
FltCat VFR VFR VFR VFR VFR VFR VFR VFR VFR VFR VFR
WX -SHRA -SHRA -SHRA -SHRA -SHRA -SHRA -SHRA -SHRA -SHRA -SHRA -SHRA
WDir 190 190 200 200 200 200 200 200 200 200 200
WSpd 7 7 8 8 8 8 8 8 8 8 8
WGst -- -- -- -- -- -- -- -- -- -- --
Raw TAF
KPDX 220520Z 2206/2306 13009KT 6SM -RA BKN030 OVC045
  FM220700 15007KT P6SM -RA SCT030 BKN045 OVC060
  FM221000 19007KT P6SM -SHRA BKN045 BKN060
  FM222100 20008KT P6SM -SHRA BKN040 BKN060


METAR Board
Radar Display
Forecast Discussion
For situational awareness. Not to be used for flight planning purposes.